La Ronge Airport
CYVC : now visible

Airfield :











YOU CAN JOIN US ON...

 
LOGIN :

Register | Disclaimer

   EN    FR    IT 

 









Legend :    VFR   Marginal VFR   IFR   Intensive IFR   Very Intensive IFR
Visi :
Ceiling :
>= 8 km
>= 3000ft
5 to 8 km
1000 to 3000 ft
1500m to 5 km
500 to 1000 ft
800 to 1500m
200 to 500 ft
< 800m
< 200 ft
Symbols :   Thunderstorms  Fog  Heavy snow  Heavy precipitations  Wind > 20 kt







- Airport Elevation : 1242 ft
- IATA code : YVC


CYVC - La Ronge

CURRENT METAR :
  • 212100Z 31009G15KT 240V330 15SM BKN040 15/07 A2973 RMK SC5 SLP077 DENSITY ALT 1800FT

EXPIRED METARs :
  • 212000Z 30012G19KT 15SM BKN038 14/07 A2974 RMK SC5 SLP081 DENSITY ALT 1700FT
  • 211900Z 30011KT 15SM BKN045 14/08 A2974 RMK CU6 SLP083 DENSITY ALT 1700FT

TAF TAF CYVC
Valid from the 21 at 19:00 until the 22 at 07:00 UTC


211838Z 2119/2207 28010KT P6SM BKN030
FM212200 28008KT P6SM FEW030
BECMG 2201/2203 21006KT FEW120 RMK NXT FCST BY 220100Z
No reported NOTAMs for that airfield.



MET'MAP, your aeronautical weather chart ! - Copyright ORBIFLY December 2007 - Disclaimer

ORBIFLY MET'MAP TEAM :

Programming & Development : Alexandra Zaïnal
Concept & Development : Baudouin d'Aumeries
Co-Development & Prog : Marc-Olivier Méhu
Technical & hardware support : Manuel Goepfert

Contact : metmap@orbifly.com




SOURCES & CREDITS :

   NOAA       Earth
Advisory